createdAt,value
2023-01-04T00:01:34.223Z,19.07
2023-01-04T00:04:02.238Z,65.67
2023-01-04T00:06:30.283Z,36.80
2023-01-04T00:08:58.054Z,50.00
2023-01-04T00:11:25.977Z,65.43
2023-01-04T00:13:54.690Z,43.50
2023-01-04T00:16:24.102Z,176.17
2023-01-04T00:18:52.453Z,63.90
2023-01-04T00:21:27.693Z,47.57
2023-01-04T00:23:57.418Z,31.70
2023-01-04T00:26:27.023Z,39.63
2023-01-04T00:28:56.303Z,57.30
2023-01-04T00:31:24.420Z,37.27
2023-01-04T00:33:54.819Z,45.90
2023-01-04T00:36:22.687Z,36.83
2023-01-04T00:39:08.964Z,62.30
2023-01-04T00:42:03.416Z,55.90
2023-01-04T00:44:31.546Z,48.77
2023-01-04T00:47:00.159Z,29.57
2023-01-04T00:49:28.363Z,27.93
2023-01-04T00:51:56.137Z,37.00
2023-01-04T00:54:24.113Z,48.67
2023-01-04T00:56:52.359Z,44.83
2023-01-04T00:59:20.932Z,32.37
2023-01-04T01:01:49.166Z,35.77
2023-01-04T01:04:18.739Z,31.87
2023-01-04T01:06:46.584Z,34.00
2023-01-04T01:09:14.318Z,33.53
2023-01-04T01:11:42.548Z,29.77
2023-01-04T01:14:11.212Z,30.93
2023-01-04T01:16:54.340Z,25.30
2023-01-04T01:19:22.521Z,22.40
2023-01-04T01:21:50.340Z,28.57
2023-01-04T01:24:19.233Z,24.67
2023-01-04T01:26:47.061Z,18.83
2023-01-04T01:29:14.955Z,21.50
2023-01-04T01:31:42.981Z,21.73
2023-01-04T01:34:10.826Z,19.27
2023-01-04T01:36:38.564Z,21.50
2023-01-04T01:39:07.131Z,21.60
2023-01-04T01:41:35.717Z,22.47
2023-01-04T01:44:03.361Z,17.80
2023-01-04T01:46:44.023Z,20.77
2023-01-04T01:49:14.635Z,20.77
2023-01-04T01:51:42.736Z,21.13
2023-01-04T01:54:14.173Z,20.40
2023-01-04T01:56:42.333Z,20.60
2023-01-04T01:59:10.815Z,19.20
2023-01-04T02:01:38.760Z,19.77
2023-01-04T02:04:06.827Z,22.37
2023-01-04T02:06:36.836Z,20.50
2023-01-04T02:09:04.671Z,22.33
2023-01-04T02:11:32.550Z,24.03
2023-01-04T02:14:18.693Z,23.67
2023-01-04T02:17:17.663Z,22.33
2023-01-04T02:19:45.416Z,24.87
2023-01-04T02:22:24.854Z,24.50
2023-01-04T02:25:04.411Z,24.93
2023-01-04T02:27:35.105Z,24.80
2023-01-04T02:30:12.668Z,26.50
2023-01-04T02:32:46.883Z,26.53
2023-01-04T02:35:14.544Z,23.17
2023-01-04T02:38:06.617Z,24.80
2023-01-04T02:40:57.809Z,24.50
2023-01-04T02:44:14.839Z,25.73
2023-01-04T02:46:50.410Z,26.37
2023-01-04T02:49:36.775Z,24.70
2023-01-04T02:52:04.619Z,23.77
2023-01-04T02:54:33.613Z,29.03
2023-01-04T02:57:34.387Z,25.17
2023-01-04T03:00:22.334Z,22.27
2023-01-04T03:03:13.675Z,24.77
2023-01-04T03:06:07.651Z,23.83
2023-01-04T03:08:56.736Z,20.70
2023-01-04T03:11:43.027Z,22.70
2023-01-04T03:14:30.785Z,20.83
2023-01-04T03:17:01.771Z,20.50
2023-01-04T03:19:48.073Z,18.33
2023-01-04T03:22:36.180Z,16.70
2023-01-04T03:25:22.407Z,15.83
2023-01-04T03:28:08.717Z,18.67
2023-01-04T03:30:55.743Z,17.47
2023-01-04T03:33:41.960Z,20.10
2023-01-04T03:36:39.887Z,19.37
2023-01-04T03:39:54.898Z,17.53
2023-01-04T03:42:48.371Z,18.30
2023-01-04T03:45:39.906Z,17.77
2023-01-04T03:48:46.176Z,16.23
2023-01-04T03:51:27.050Z,16.07
2023-01-04T03:53:57.634Z,16.00
2023-01-04T03:56:25.495Z,16.60
2023-01-04T03:58:53.276Z,15.60
2023-01-04T04:01:21.426Z,15.27
2023-01-04T04:04:07.755Z,17.17
2023-01-04T04:06:54.165Z,15.23
2023-01-04T04:09:22.060Z,15.70
2023-01-04T04:11:49.848Z,16.40
2023-01-04T04:14:17.663Z,14.40
2023-01-04T04:16:45.769Z,12.70
2023-01-04T04:19:13.582Z,16.50
2023-01-04T04:21:41.492Z,13.70
2023-01-04T04:24:09.588Z,14.27
2023-01-04T04:26:37.420Z,13.10
2023-01-04T04:29:05.148Z,15.30
2023-01-04T04:31:33.163Z,13.43
2023-01-04T04:34:00.956Z,12.60
2023-01-04T04:36:28.669Z,14.93
2023-01-04T04:38:56.419Z,12.50
2023-01-04T04:41:39.668Z,13.07
2023-01-04T04:44:09.002Z,13.03
2023-01-04T04:46:36.858Z,14.63
2023-01-04T04:49:04.930Z,13.50
2023-01-04T04:51:32.840Z,13.00
2023-01-04T04:54:00.772Z,13.27
2023-01-04T04:56:28.627Z,12.93
2023-01-04T04:58:56.379Z,12.17
2023-01-04T05:01:24.363Z,12.30
2023-01-04T05:03:52.261Z,12.67
2023-01-04T05:06:20.073Z,12.13
2023-01-04T05:08:47.791Z,13.47
2023-01-04T05:11:15.662Z,12.40
2023-01-04T05:13:43.423Z,12.37
2023-01-04T05:16:11.276Z,11.90
2023-01-04T05:18:39.090Z,14.57
2023-01-04T05:21:07.015Z,13.13
2023-01-04T05:23:34.774Z,13.27
2023-01-04T05:26:02.745Z,16.03
2023-01-04T05:28:30.513Z,11.70
2023-01-04T05:30:58.404Z,11.90
2023-01-04T05:33:28.068Z,11.43
2023-01-04T05:35:56.583Z,10.77
2023-01-04T05:38:24.587Z,11.43
2023-01-04T05:40:52.477Z,13.33
2023-01-04T05:43:20.730Z,11.10
2023-01-04T05:45:50.209Z,10.43
2023-01-04T05:48:18.521Z,10.63
2023-01-04T05:50:47.048Z,11.67
2023-01-04T05:53:15.318Z,12.33
2023-01-04T05:55:43.114Z,12.73
2023-01-04T05:58:10.945Z,11.63
2023-01-04T06:00:38.769Z,12.17
2023-01-04T06:03:06.846Z,11.60
2023-01-04T06:05:34.792Z,12.20
2023-01-04T06:08:02.588Z,12.20
2023-01-04T06:10:30.395Z,11.17
2023-01-04T06:12:58.185Z,11.37
2023-01-04T06:15:26.039Z,11.43
2023-01-04T06:17:53.912Z,13.33
2023-01-04T06:20:21.775Z,10.87
2023-01-04T06:22:49.568Z,12.70
2023-01-04T06:25:17.360Z,12.83
2023-01-04T06:27:45.193Z,11.17
2023-01-04T06:30:13.068Z,12.73
2023-01-04T06:32:40.795Z,10.77
2023-01-04T06:35:08.839Z,11.57
2023-01-04T06:37:37.185Z,12.23
2023-01-04T06:40:05.745Z,11.67
2023-01-04T06:42:48.651Z,11.93
2023-01-04T06:45:17.087Z,13.33
2023-01-04T06:47:45.009Z,12.53
2023-01-04T06:50:13.035Z,11.40
2023-01-04T06:52:40.996Z,14.03
2023-01-04T06:55:10.578Z,12.53
2023-01-04T06:57:38.776Z,11.57
2023-01-04T07:00:07.728Z,12.87
2023-01-04T07:02:35.732Z,12.57
2023-01-04T07:05:03.956Z,13.23
2023-01-04T07:07:31.950Z,14.93
2023-01-04T07:10:03.874Z,14.57
2023-01-04T07:12:37.883Z,13.33
2023-01-04T07:15:38.901Z,13.97
2023-01-04T07:17:54.169Z,14.57
2023-01-04T07:20:21.958Z,12.93
2023-01-04T07:22:49.868Z,15.10
2023-01-04T07:25:17.781Z,12.57
2023-01-04T07:27:45.708Z,14.23
2023-01-04T07:30:14.029Z,15.13
2023-01-04T07:32:41.900Z,13.17
2023-01-04T07:35:10.366Z,13.43
2023-01-04T07:37:38.420Z,8.70
2023-01-04T07:40:07.199Z,15.07
2023-01-04T07:42:35.185Z,15.17
2023-01-04T07:45:03.240Z,14.63
2023-01-04T07:47:31.323Z,12.90
2023-01-04T07:49:59.907Z,11.60
2023-01-04T07:52:28.466Z,9.97
2023-01-04T07:54:56.459Z,14.50
2023-01-04T07:57:24.503Z,10.80
2023-01-04T07:59:53.061Z,11.73
2023-01-04T08:02:21.596Z,12.20
2023-01-04T08:04:49.758Z,12.37
2023-01-04T08:07:18.003Z,13.57
2023-01-04T08:09:45.867Z,13.03
2023-01-04T08:12:14.013Z,12.80
2023-01-04T08:14:41.928Z,12.10
2023-01-04T08:17:09.977Z,11.43
2023-01-04T08:19:37.956Z,13.13
2023-01-04T08:22:06.202Z,11.73
2023-01-04T08:24:34.365Z,12.27
2023-01-04T08:27:02.305Z,10.87
2023-01-04T08:29:34.739Z,8.37
2023-01-04T08:32:02.700Z,8.00
2023-01-04T08:34:31.276Z,8.40
2023-01-04T08:36:59.811Z,8.00
2023-01-04T08:39:30.701Z,6.63
2023-01-04T08:42:31.532Z,6.40
2023-01-04T08:44:46.836Z,7.17
2023-01-04T08:47:14.776Z,5.87
2023-01-04T08:49:43.080Z,5.57
2023-01-04T08:52:11.473Z,5.40
2023-01-04T08:54:39.464Z,6.33
2023-01-04T08:57:07.507Z,5.47
2023-01-04T08:59:35.550Z,6.73
2023-01-04T09:02:06.008Z,5.60
2023-01-04T09:04:34.460Z,7.20
2023-01-04T09:07:02.452Z,5.87
2023-01-04T09:09:31.289Z,6.03
2023-01-04T09:12:00.898Z,5.57
2023-01-04T09:14:29.067Z,5.53
2023-01-04T09:16:56.996Z,5.50
2023-01-04T09:19:25.116Z,6.00
2023-01-04T09:21:53.147Z,5.73
2023-01-04T09:24:21.304Z,5.07
2023-01-04T09:26:49.403Z,5.50
2023-01-04T09:29:17.593Z,4.60
2023-01-04T09:31:45.564Z,6.23
2023-01-04T09:34:16.077Z,5.57
2023-01-04T09:36:46.592Z,4.80
2023-01-04T09:39:21.535Z,4.57
2023-01-04T09:42:06.005Z,5.57
2023-01-04T09:45:12.294Z,5.00
2023-01-04T09:47:43.304Z,5.40
2023-01-04T09:50:30.512Z,4.90
2023-01-04T09:53:02.262Z,5.20
2023-01-04T09:55:41.252Z,6.70
2023-01-04T09:58:13.357Z,4.53
2023-01-04T10:00:46.571Z,5.07
2023-01-04T10:03:35.891Z,5.27
2023-01-04T10:06:04.404Z,5.67
2023-01-04T10:08:32.877Z,5.50
2023-01-04T10:11:10.046Z,4.77
2023-01-04T10:13:47.941Z,5.47
2023-01-04T10:22:49.127Z,4.40
2023-01-04T10:25:27.506Z,4.67
2023-01-04T10:28:14.362Z,5.90
2023-01-04T10:30:45.303Z,5.27
2023-01-04T10:33:20.668Z,20.47
2023-01-04T10:35:49.315Z,13.13
2023-01-04T10:38:19.458Z,5.50
2023-01-04T10:40:48.757Z,5.43
2023-01-04T10:44:11.557Z,4.80
2023-01-04T10:46:44.189Z,5.63
2023-01-04T10:49:24.541Z,4.50
2023-01-04T10:52:00.113Z,5.43
2023-01-04T10:54:55.334Z,5.73
2023-01-04T10:57:35.909Z,5.13
2023-01-04T11:00:07.039Z,4.97
2023-01-04T11:02:47.179Z,4.70
2023-01-04T11:05:37.548Z,5.00
2023-01-04T11:08:23.983Z,4.47
2023-01-04T11:10:56.953Z,5.50
2023-01-04T11:13:25.364Z,5.00
2023-01-04T11:15:53.648Z,4.47
2023-01-04T11:18:21.601Z,8.47
2023-01-04T11:20:49.640Z,5.40
2023-01-04T11:23:19.301Z,5.67
2023-01-04T11:25:56.593Z,5.73
2023-01-04T11:28:38.788Z,5.43
2023-01-04T11:31:10.530Z,9.97
2023-01-04T11:33:57.625Z,12.73
2023-01-04T11:36:37.986Z,5.83
2023-01-04T11:39:27.341Z,5.43
2023-01-04T11:42:05.890Z,5.57
2023-01-04T11:44:34.921Z,5.53
2023-01-04T11:47:10.192Z,4.83
2023-01-04T11:49:38.123Z,4.63
2023-01-04T11:52:06.728Z,4.27
2023-01-04T11:54:34.658Z,4.20
2023-01-04T11:57:12.059Z,3.97
2023-01-04T11:59:40.469Z,3.70
2023-01-04T12:02:28.581Z,3.83
2023-01-04T12:05:01.097Z,3.47
2023-01-04T12:07:33.032Z,4.40
2023-01-04T12:10:01.837Z,3.60
2023-01-04T12:12:33.838Z,4.37
2023-01-04T12:15:04.216Z,3.97
2023-01-04T12:17:44.400Z,4.77
2023-01-04T12:20:19.615Z,5.37
2023-01-04T12:22:48.038Z,5.47
2023-01-04T12:25:34.226Z,5.20
2023-01-04T12:28:02.273Z,6.07
2023-01-04T12:30:46.989Z,11.50
2023-01-04T12:33:44.614Z,4.17
2023-01-04T12:36:16.112Z,5.30
2023-01-04T12:38:56.464Z,3.80
2023-01-04T12:41:46.491Z,3.75
2023-01-04T12:44:36.357Z,3.20
2023-01-04T12:47:48.737Z,3.63
2023-01-04T12:50:34.936Z,3.07
2023-01-04T12:55:55.787Z,4.40
2023-01-04T12:58:57.903Z,4.47
2023-01-04T13:01:25.950Z,3.73
2023-01-04T13:04:04.304Z,4.30
2023-01-04T13:06:35.322Z,7.07
2023-01-04T13:09:03.601Z,4.50
2023-01-04T13:11:41.954Z,3.50
2023-01-04T13:14:12.786Z,4.33
2023-01-04T13:17:08.998Z,3.13
2023-01-04T13:19:39.433Z,4.13
2023-01-04T13:22:26.603Z,3.23
2023-01-04T13:24:58.935Z,6.13
2023-01-04T13:27:27.692Z,3.27
2023-01-04T13:29:55.970Z,3.63
2023-01-04T13:32:30.552Z,3.27
2023-01-04T13:35:15.251Z,2.57
2023-01-04T13:37:47.729Z,3.63
2023-01-04T13:40:15.678Z,2.97
2023-01-04T13:42:45.577Z,3.77
2023-01-04T13:45:43.430Z,4.67
2023-01-04T13:48:13.691Z,3.27
2023-01-04T13:50:45.400Z,2.60
2023-01-04T13:53:22.821Z,4.23
2023-01-04T13:55:54.734Z,3.70
2023-01-04T13:58:24.333Z,3.57
2023-01-04T14:01:04.026Z,3.47
2023-01-04T14:03:37.849Z,3.40
2023-01-04T14:06:11.741Z,2.80
2023-01-04T14:08:53.189Z,3.20
2023-01-04T14:11:42.954Z,2.37
2023-01-04T14:14:26.455Z,3.20
2023-01-04T14:16:54.873Z,2.63
2023-01-04T14:20:09.018Z,2.93
2023-01-04T14:22:45.776Z,8.67
2023-01-04T14:25:32.146Z,3.10
2023-01-04T14:28:26.083Z,5.93
2023-01-04T14:31:23.722Z,3.13
2023-01-04T14:33:52.459Z,3.27
2023-01-04T14:36:31.406Z,2.97
2023-01-04T14:39:07.896Z,3.07
2023-01-04T14:41:53.411Z,3.23
2023-01-04T14:44:32.069Z,3.70
2023-01-04T14:47:01.531Z,2.97
2023-01-04T14:49:29.798Z,4.30
2023-01-04T14:52:00.304Z,2.47
2023-01-04T14:54:29.180Z,2.43
2023-01-04T14:56:58.243Z,3.53
2023-01-04T14:59:26.748Z,2.87
2023-01-04T15:01:55.645Z,4.07
2023-01-04T15:04:24.170Z,2.63
2023-01-04T15:07:01.478Z,2.83
2023-01-04T15:09:30.352Z,2.83
2023-01-04T15:11:58.598Z,2.40
2023-01-04T15:14:26.447Z,11.40
2023-01-04T15:16:54.440Z,5.77
2023-01-04T15:19:22.979Z,3.27
2023-01-04T15:21:50.839Z,6.37
2023-01-04T15:24:18.751Z,3.40
2023-01-04T15:26:46.713Z,3.93
2023-01-04T15:29:14.928Z,2.97
2023-01-04T15:31:45.166Z,2.77
2023-01-04T15:34:15.639Z,2.60
2023-01-04T15:36:43.707Z,2.40
2023-01-04T15:39:15.354Z,4.73
2023-01-04T15:42:02.044Z,3.23
2023-01-04T15:44:29.922Z,2.60
2023-01-04T15:47:00.459Z,3.07
2023-01-04T15:49:30.972Z,2.83
2023-01-04T15:51:58.865Z,2.33
2023-01-04T15:54:28.002Z,2.83
2023-01-04T15:57:01.982Z,3.20
2023-01-04T15:59:30.039Z,3.93
2023-01-04T16:01:58.713Z,5.33
2023-01-04T16:04:28.101Z,3.30
2023-01-04T16:06:56.261Z,4.00
2023-01-04T16:09:24.434Z,4.10
2023-01-04T16:12:13.772Z,3.70
2023-01-04T16:15:00.100Z,5.30
2023-01-04T16:17:28.363Z,4.17
2023-01-04T16:19:56.265Z,4.50
2023-01-04T16:22:24.498Z,4.47
2023-01-04T16:25:22.495Z,4.90
2023-01-04T16:27:40.689Z,4.03
2023-01-04T16:30:10.731Z,4.43
2023-01-04T16:32:45.218Z,4.63
2023-01-04T16:35:13.466Z,6.40
2023-01-04T16:37:44.835Z,6.03
2023-01-04T16:40:13.594Z,5.67
2023-01-04T16:42:41.774Z,3.10
2023-01-04T16:45:26.197Z,2.40
2023-01-04T16:47:55.209Z,4.47
2023-01-04T16:50:23.077Z,5.13
2023-01-04T16:52:53.911Z,4.97
2023-01-04T16:55:54.269Z,6.77
2023-01-04T16:58:22.473Z,5.17
2023-01-04T17:00:50.691Z,5.87
2023-01-04T17:03:18.606Z,4.37
2023-01-04T17:05:46.659Z,4.00
2023-01-04T17:08:14.774Z,3.27
2023-01-04T17:10:42.827Z,2.60
2023-01-04T17:13:10.755Z,2.77
2023-01-04T17:15:43.344Z,3.13
2023-01-04T17:18:14.004Z,3.47
2023-01-04T17:21:35.476Z,2.93
2023-01-04T17:24:03.943Z,5.90
2023-01-04T17:26:36.069Z,4.27
2023-01-04T17:29:04.128Z,3.43
2023-01-04T17:31:34.661Z,2.23
2023-01-04T17:34:04.026Z,3.57
2023-01-04T17:36:32.343Z,2.90
2023-01-04T17:39:01.640Z,3.17
2023-01-04T17:41:33.290Z,3.40
2023-01-04T17:44:03.424Z,4.73
2023-01-04T17:46:33.229Z,2.47
2023-01-04T17:49:23.929Z,1.93
2023-01-04T17:51:58.803Z,1.80
2023-01-04T17:54:35.848Z,1.50
2023-01-04T17:57:03.725Z,10.40
2023-01-04T17:59:31.700Z,4.40
2023-01-04T18:01:59.992Z,2.63
2023-01-04T18:04:28.127Z,2.97
2023-01-04T18:06:56.334Z,2.17
2023-01-04T18:09:26.157Z,1.40
2023-01-04T18:11:54.532Z,2.10
2023-01-04T18:14:23.896Z,3.00
2023-01-04T18:16:58.677Z,1.73
2023-01-04T18:19:31.255Z,3.17
2023-01-04T18:21:59.455Z,2.60
2023-01-04T18:24:37.814Z,1.80
2023-01-04T18:27:21.576Z,2.50
2023-01-04T18:29:50.520Z,0.97
2023-01-04T18:32:19.350Z,1.03
2023-01-04T18:34:48.039Z,1.80
2023-01-04T18:37:19.337Z,2.30
2023-01-04T18:39:49.199Z,2.10
2023-01-04T18:42:20.180Z,2.40
2023-01-04T18:44:51.024Z,3.17
2023-01-04T18:47:33.205Z,1.23
2023-01-04T18:53:11.183Z,1.60
2023-01-04T18:55:42.120Z,1.57
2023-01-04T18:58:21.426Z,1.17
2023-01-04T19:00:51.901Z,1.70
2023-01-04T19:04:59.386Z,1.10
2023-01-04T19:07:34.202Z,0.90
2023-01-04T19:10:02.171Z,1.50
2023-01-04T19:12:34.384Z,1.23
2023-01-04T19:15:03.639Z,1.20
2023-01-04T19:20:18.166Z,1.47
2023-01-04T19:22:46.091Z,1.10
2023-01-04T19:25:14.298Z,4.30
2023-01-04T19:30:27.664Z,1.17
2023-01-04T19:36:45.342Z,3.07
2023-01-04T19:39:14.951Z,2.43
2023-01-04T19:41:43.574Z,3.10
2023-01-04T19:44:24.321Z,8.77
2023-01-04T19:46:52.427Z,1.67
2023-01-04T19:49:23.667Z,1.90
2023-01-04T19:51:52.961Z,1.40
2023-01-04T19:54:25.094Z,2.70
2023-01-04T19:56:53.565Z,5.63
2023-01-04T19:59:21.977Z,1.50
2023-01-04T20:01:52.758Z,2.07
2023-01-04T20:04:51.189Z,0.80
2023-01-04T20:07:41.538Z,1.43
2023-01-04T20:10:14.566Z,1.00
2023-01-04T20:12:43.339Z,1.90
2023-01-04T20:15:18.515Z,1.40
2023-01-04T20:17:46.712Z,0.73
2023-01-04T20:26:43.613Z,0.60
2023-01-04T20:29:12.033Z,2.50
2023-01-04T20:31:45.358Z,1.53
2023-01-04T20:34:14.243Z,0.93
2023-01-04T20:36:43.698Z,1.27
2023-01-04T20:39:11.685Z,1.07
2023-01-04T20:41:49.604Z,1.83
2023-01-04T20:44:20.779Z,1.93
2023-01-04T20:46:48.936Z,2.20
2023-01-04T20:49:17.056Z,12.73
2023-01-04T20:51:45.014Z,2.00
2023-01-04T20:54:12.917Z,2.30
2023-01-04T20:56:41.652Z,2.53
2023-01-04T20:59:11.763Z,1.08
2023-01-04T21:01:39.967Z,1.30
2023-01-04T21:04:09.632Z,0.57
2023-01-04T21:06:45.647Z,0.77
2023-01-04T21:09:14.788Z,1.10
2023-01-04T21:11:47.334Z,0.80
2023-01-04T21:14:15.439Z,0.47
2023-01-04T21:16:48.762Z,0.63
2023-01-04T21:19:22.580Z,2.50
2023-01-04T21:21:52.128Z,2.00
2023-01-04T21:24:20.625Z,0.87
2023-01-04T21:26:48.771Z,1.13
2023-01-04T21:29:16.899Z,1.00
2023-01-04T21:31:45.782Z,1.60
2023-01-04T21:34:18.262Z,2.30
2023-01-04T21:36:49.380Z,4.60
2023-01-04T21:39:18.468Z,0.90
2023-01-04T21:41:48.370Z,1.57
2023-01-04T21:44:16.822Z,1.67
2023-01-04T21:46:47.930Z,1.20
2023-01-04T21:49:18.775Z,0.87
2023-01-04T21:51:47.477Z,1.47
2023-01-04T21:54:15.586Z,0.77
2023-01-04T21:59:34.863Z,8.00
2023-01-04T22:02:03.259Z,1.30
2023-01-04T22:04:32.408Z,0.97
2023-01-04T22:10:35.575Z,0.53
2023-01-04T22:13:12.754Z,1.30
2023-01-04T22:15:42.669Z,2.40
2023-01-04T22:18:39.555Z,0.60
2023-01-04T22:21:10.800Z,1.67
2023-01-04T22:27:18.027Z,1.23
2023-01-04T22:30:02.005Z,0.80
2023-01-04T22:32:59.700Z,0.80
2023-01-04T22:35:51.828Z,0.70
2023-01-04T22:41:53.922Z,2.07
2023-01-04T22:45:11.010Z,0.93
2023-01-04T22:47:48.805Z,1.00
2023-01-04T22:47:58.721Z,1.43
2023-01-04T22:51:20.468Z,1.70
2023-01-04T22:53:46.771Z,1.33
2023-01-04T22:56:20.820Z,0.90
2023-01-04T22:58:53.364Z,0.70
2023-01-04T23:01:30.669Z,1.03
2023-01-04T23:03:59.805Z,0.80
2023-01-04T23:06:28.195Z,0.90
2023-01-04T23:09:06.451Z,1.13
2023-01-04T23:11:35.353Z,1.37
2023-01-04T23:14:04.108Z,0.70
2023-01-04T23:16:33.374Z,0.90
2023-01-04T23:19:03.382Z,1.77
2023-01-04T23:21:31.306Z,1.27
2023-01-04T23:23:59.743Z,0.80
2023-01-04T23:26:28.667Z,1.03
2023-01-04T23:28:57.025Z,0.63
2023-01-04T23:31:26.019Z,0.87
2023-01-04T23:33:55.507Z,2.93
2023-01-04T23:36:26.949Z,0.93
2023-01-04T23:38:57.157Z,1.10
2023-01-04T23:41:46.566Z,0.70
2023-01-04T23:44:25.465Z,1.27
2023-01-04T23:46:55.632Z,0.93
2023-01-04T23:49:24.151Z,0.93
2023-01-04T23:51:52.196Z,0.90
2023-01-04T23:54:20.210Z,1.30
2023-01-04T23:56:48.182Z,0.93
2023-01-04T23:59:16.138Z,2.27
